Time;durP1;ratioP1;P1;durP2;ratioP2;P2;SDS_P1;SDS_P2;PMS_P1;PMS_P2;Temp;Humidity;BMP_temperature;BMP_pressure;BME280_temperature;BME280_humidity;BME280_pressure;Samples;Min_cycle;Max_cycle;Signal;HPM_P1;HPM_P2
2023/08/09 00:00:37;;;;;;;4.95;1.10;;;;;;;21.08;68.05;98981.31;5028166;28;20045;-48
2023/08/09 00:03:04;;;;;;;3.92;2.20;;;;;;;21.25;67.86;98995.66;5026943;28;20158;-47
2023/08/09 00:05:30;;;;;;;5.57;1.92;;;;;;;21.17;68.06;98984.13;5026545;28;20045;-48
2023/08/09 00:07:56;;;;;;;5.30;2.40;;;;;;;21.28;67.72;99005.16;5025508;28;20064;-48
2023/08/09 00:10:22;;;;;;;3.50;2.35;;;;;;;21.28;67.91;98995.41;5022740;28;20041;-46
2023/08/09 00:12:48;;;;;;;2.45;1.30;;;;;;;21.27;67.87;98996.38;5017177;28;20048;-53
2023/08/09 00:15:14;;;;;;;2.63;1.20;;;;;;;21.26;67.61;98991.22;5054111;28;20504;-49
2023/08/09 00:17:40;;;;;;;2.58;1.33;;;;;;;21.24;67.70;98998.47;5027780;28;20052;-48
2023/08/09 00:20:08;;;;;;;4.47;1.55;;;;;;;21.22;67.91;99000.41;5023017;28;20512;-46
2023/08/09 00:22:34;;;;;;;3.42;1.05;;;;;;;21.22;67.99;99000.41;5027795;28;20049;-46
2023/08/09 00:25:00;;;;;;;1.40;1.15;;;;;;;21.20;67.81;98997.09;5018131;28;20539;-47
2023/08/09 00:27:28;;;;;;;3.38;1.20;;;;;;;21.16;67.88;98996.50;5026358;28;20045;-47
2023/08/09 00:29:55;;;;;;;3.47;1.30;;;;;;;21.13;68.29;98994.94;5021807;28;20048;-48
2023/08/09 00:32:21;;;;;;;2.08;1.10;;;;;;;21.11;68.44;99004.81;5006805;28;20041;-47
2023/08/09 00:34:47;;;;;;;2.35;1.67;;;;;;;21.10;68.38;99002.28;5023395;28;20054;-50
2023/08/09 00:37:13;;;;;;;3.65;1.60;;;;;;;21.07;68.75;98999.94;5025597;28;20467;-48
2023/08/09 00:39:39;;;;;;;2.53;1.40;;;;;;;20.93;68.34;98977.38;5026353;28;20045;-50
2023/08/09 00:42:05;;;;;;;2.38;1.52;;;;;;;21.08;68.46;99010.38;5019378;28;20104;-50
2023/08/09 00:44:32;;;;;;;1.55;1.10;;;;;;;21.08;68.60;98999.81;5024105;28;20041;-48
2023/08/09 00:46:58;;;;;;;2.40;1.30;;;;;;;21.08;68.40;99007.72;5027739;28;20052;-46
2023/08/09 00:49:24;;;;;;;1.30;1.20;;;;;;;21.10;68.53;99007.56;5024583;28;20653;-49
2023/08/09 00:51:50;;;;;;;3.88;1.50;;;;;;;21.13;68.17;99008.16;5009181;28;20053;-50
2023/08/09 00:54:17;;;;;;;1.90;0.90;;;;;;;21.02;68.07;98992.41;5027368;28;20050;-50
2023/08/09 00:56:43;;;;;;;2.78;1.27;;;;;;;21.16;67.76;99011.53;5030826;28;20087;-48
2023/08/09 00:59:09;;;;;;;3.03;1.30;;;;;;;21.19;67.75;99009.47;5012192;28;20045;-46
2023/08/09 01:01:35;;;;;;;2.03;1.23;;;;;;;21.02;67.94;98981.00;5030649;28;20076;-45
2023/08/09 01:04:01;;;;;;;4.47;1.23;;;;;;;21.16;67.88;99015.00;5030202;28;20475;-48
2023/08/09 01:06:48;;;;;;;2.20;1.23;;;;;;;21.12;68.00;99018.88;5026180;28;20606;-49
2023/08/09 01:09:39;;;;;;;1.38;1.15;;;;;;;21.04;68.20;99021.38;5042633;28;20049;-46
2023/08/09 01:12:11;;;;;;;3.92;1.33;;;;;;;21.01;68.53;99016.31;5050250;28;20097;-51
2023/08/09 01:14:42;;;;;;;1.75;1.17;;;;;;;20.99;68.67;99026.19;5022349;28;20041;-51
2023/08/09 01:17:12;;;;;;;1.67;1.13;;;;;;;20.95;68.90;99020.34;5013453;28;20060;-48
2023/08/09 01:19:41;;;;;;;2.65;1.17;;;;;;;20.94;68.88;99023.94;5025181;28;20397;-50
2023/08/09 01:22:13;;;;;;;2.97;1.83;;;;;;;20.92;68.67;99025.91;5012722;28;20056;-49
2023/08/09 01:24:40;;;;;;;3.80;1.30;;;;;;;20.87;68.96;99014.06;5026194;28;20045;-51
2023/08/09 01:27:06;;;;;;;1.77;1.40;;;;;;;20.85;69.07;99022.13;4992249;28;20049;-52
2023/08/09 01:29:32;;;;;;;2.40;1.23;;;;;;;20.82;68.97;99025.03;5028022;28;20045;-50
2023/08/09 01:31:58;;;;;;;2.85;1.42;;;;;;;20.79;69.10;99025.28;5011213;28;20536;-50
2023/08/09 01:34:24;;;;;;;2.95;1.20;;;;;;;20.76;69.10;99025.56;5023767;28;20037;-52
2023/08/09 01:36:50;;;;;;;4.03;1.35;;;;;;;20.76;69.30;99024.72;5005765;28;20041;-50
2023/08/09 01:39:21;;;;;;;3.75;1.20;;;;;;;20.75;69.16;99018.59;5027215;28;20037;-52
2023/08/09 01:41:48;;;;;;;4.97;1.10;;;;;;;20.85;69.25;99035.31;5026753;28;20578;-50
2023/08/09 01:44:14;;;;;;;1.75;1.13;;;;;;;20.91;68.78;99031.31;5010302;28;20041;-52
2023/08/09 01:46:41;;;;;;;3.13;1.10;;;;;;;20.96;68.64;99029.09;5010785;28;20136;-48
2023/08/09 01:49:15;;;;;;;1.67;1.10;;;;;;;21.02;68.29;99029.41;5029374;28;20546;-51
2023/08/09 01:51:41;;;;;;;3.60;1.52;;;;;;;20.95;68.08;99011.56;5022224;28;20045;-52
2023/08/09 01:54:08;;;;;;;3.90;1.30;;;;;;;21.10;67.95;99026.09;5023337;28;20136;-49
2023/08/09 01:56:35;;;;;;;3.50;1.30;;;;;;;21.02;67.85;99007.44;5027274;28;20029;-52
2023/08/09 01:59:01;;;;;;;1.00;0.90;;;;;;;21.19;67.88;99030.63;5027599;28;20099;-47
2023/08/09 02:01:27;;;;;;;2.40;1.25;;;;;;;21.10;67.83;99013.69;5009980;28;20436;-47
2023/08/09 02:03:53;;;;;;;1.60;1.23;;;;;;;21.21;67.80;99025.16;5013355;28;20076;-52
2023/08/09 02:06:28;;;;;;;3.13;1.30;;;;;;;21.22;67.91;99022.41;5009349;28;20477;-47
2023/08/09 02:09:00;;;;;;;3.83;1.10;;;;;;;21.23;67.91;99026.72;5014176;28;20132;-51
2023/08/09 02:11:26;;;;;;;3.55;1.48;;;;;;;21.25;68.04;99037.97;4995760;28;20052;-50
2023/08/09 02:13:53;;;;;;;2.60;1.23;;;;;;;21.26;67.91;99021.16;5022860;28;20045;-50
2023/08/09 02:16:20;;;;;;;3.22;1.25;;;;;;;21.25;67.98;99013.38;5051444;28;20116;-51
2023/08/09 02:18:46;;;;;;;2.53;1.27;;;;;;;21.26;67.88;99031.72;5028618;28;20136;-50
2023/08/09 02:21:13;;;;;;;1.75;1.30;;;;;;;21.26;67.97;99028.25;5012139;28;20039;-52
2023/08/09 02:23:40;;;;;;;2.42;1.40;;;;;;;21.10;67.71;99005.78;5028516;28;20045;-47
2023/08/09 02:26:07;;;;;;;4.50;1.40;;;;;;;21.23;67.82;99032.00;5027606;28;20037;-47
2023/08/09 02:28:33;;;;;;;3.50;1.35;;;;;;;21.22;67.52;99032.13;5029632;28;20600;-48
2023/08/09 02:31:02;;;;;;;2.25;1.30;;;;;;;21.20;67.24;99032.25;5011441;28;20835;-49
2023/08/09 02:33:28;;;;;;;3.63;1.50;;;;;;;21.07;67.35;99014.00;5025232;28;20096;-51
2023/08/09 02:35:58;;;;;;;2.95;2.08;;;;;;;21.22;67.33;99035.63;5029780;28;20040;-49
2023/08/09 02:38:25;;;;;;;1.92;1.20;;;;;;;21.21;67.12;99038.38;5028264;28;20041;-46
2023/08/09 02:40:51;;;;;;;2.17;1.45;;;;;;;21.20;66.94;99028.81;5033383;28;20057;-49
2023/08/09 02:43:18;;;;;;;2.17;1.13;;;;;;;21.21;66.72;99033.09;5025761;28;20049;-50
2023/08/09 02:45:45;;;;;;;1.50;1.10;;;;;;;21.06;66.80;99014.13;5021880;28;20425;-48
2023/08/09 02:48:11;;;;;;;2.85;1.30;;;;;;;21.12;66.88;99030.28;5029828;28;20045;-49
2023/08/09 02:50:38;;;;;;;4.45;2.15;;;;;;;21.12;66.81;99043.50;5025812;28;20050;-50
2023/08/09 02:53:04;;;;;;;3.42;1.70;;;;;;;21.06;66.88;99035.25;5028116;28;20045;-48
2023/08/09 02:55:31;;;;;;;4.15;2.35;;;;;;;21.04;67.00;99043.31;5027438;28;20037;-50
2023/08/09 02:58:03;;;;;;;9.02;4.70;;;;;;;21.00;66.85;99033.16;5028035;28;20539;-50
2023/08/09 03:00:32;;;;;;;2.20;1.55;;;;;;;20.98;67.03;99045.69;5026590;28;20038;-47
2023/08/09 03:02:59;;;;;;;1.52;1.20;;;;;;;20.97;66.98;99047.47;5011170;28;20088;-48
2023/08/09 03:05:26;;;;;;;5.28;2.10;;;;;;;20.94;67.01;99038.97;4994931;28;20099;-49
2023/08/09 03:07:52;;;;;;;5.22;2.80;;;;;;;20.66;67.17;98996.47;5024659;28;20080;-50
2023/08/09 03:10:18;;;;;;;5.35;1.40;;;;;;;20.78;67.47;99026.25;5007694;28;20068;-47
2023/08/09 03:12:45;;;;;;;1.98;1.40;;;;;;;20.62;67.32;98999.50;5011028;28;20038;-52
2023/08/09 03:15:12;;;;;;;4.32;1.40;;;;;;;20.69;67.53;99008.56;5025571;28;20095;-48
2023/08/09 03:17:38;;;;;;;2.83;1.17;;;;;;;20.80;67.85;99026.97;5035299;28;20444;-50
2023/08/09 03:20:14;;;;;;;3.30;1.40;;;;;;;20.80;67.86;99032.25;5023811;28;20048;-52
2023/08/09 03:22:41;;;;;;;5.82;3.15;;;;;;;20.80;67.85;99026.97;5051519;28;20045;-50
2023/08/09 03:25:08;;;;;;;1.50;1.13;;;;;;;20.79;67.84;99021.81;5007760;28;20425;-51
2023/08/09 03:27:35;;;;;;;2.75;1.38;;;;;;;20.80;67.77;99026.13;5025725;28;20037;-48
2023/08/09 03:30:04;;;;;;;4.40;1.77;;;;;;;20.78;67.87;99023.59;5027251;28;20041;-49
2023/08/09 03:32:31;;;;;;;5.43;1.60;;;;;;;20.52;67.68;98980.13;5041055;28;20540;-48
2023/08/09 03:34:57;;;;;;;2.67;1.20;;;;;;;20.80;67.64;99023.47;5010844;28;20521;-51
2023/08/09 03:37:23;;;;;;;1.20;1.10;;;;;;;20.81;67.52;99031.28;5027106;28;20061;-49
2023/08/09 03:39:50;;;;;;;5.35;2.30;;;;;;;20.81;67.60;99031.28;5027388;28;20057;-49
2023/08/09 03:42:16;;;;;;;2.60;1.50;;;;;;;20.82;67.44;99030.31;5022809;28;20547;-52
2023/08/09 03:44:42;;;;;;;3.78;1.60;;;;;;;20.82;67.23;99026.84;5029439;28;20045;-52
2023/08/09 03:47:09;;;;;;;4.97;2.20;;;;;;;20.84;67.05;99027.53;5000850;28;20038;-50
2023/08/09 03:49:35;;;;;;;9.95;2.65;;;;;;;20.86;67.00;99031.72;5026951;28;20076;-50
2023/08/09 03:52:01;;;;;;;5.60;1.80;;;;;;;20.86;66.88;99030.88;5027338;28;20072;-47
2023/08/09 03:54:28;;;;;;;1.88;1.20;;;;;;;20.87;66.57;99036.03;5010573;28;20060;-49
2023/08/09 03:56:55;;;;;;;2.80;1.10;;;;;;;20.89;66.54;99030.59;5026924;28;20065;-48
2023/08/09 03:59:23;;;;;;;2.42;1.40;;;;;;;20.93;66.57;99032.88;5026906;28;20084;-49
2023/08/09 04:01:49;;;;;;;5.78;1.38;;;;;;;20.99;66.46;99032.31;5026162;28;20037;-48
2023/08/09 04:04:15;;;;;;;6.53;1.90;;;;;;;21.10;66.12;99037.50;5019679;28;20061;-52
2023/08/09 04:06:41;;;;;;;5.18;1.58;;;;;;;21.22;66.05;99025.03;5050603;28;20436;-50
2023/08/09 04:09:07;;;;;;;6.22;1.52;;;;;;;21.38;65.58;99035.09;5028050;28;20098;-46
2023/08/09 04:11:34;;;;;;;3.45;1.30;;;;;;;21.51;65.35;99035.69;5025874;28;20076;-48
2023/08/09 04:14:00;;;;;;;3.75;1.50;;;;;;;21.64;65.06;99032.75;5027992;28;20064;-48
2023/08/09 04:16:26;;;;;;;3.42;1.27;;;;;;;21.79;64.74;99045.44;5016943;28;20038;-53
2023/08/09 04:18:52;;;;;;;4.53;1.88;;;;;;;21.96;64.32;99033.34;5010306;28;20033;-50
2023/08/09 04:21:18;;;;;;;3.25;1.30;;;;;;;22.12;63.99;99032.78;5024436;28;20129;-48
2023/08/09 04:23:44;;;;;;;8.15;1.40;;;;;;;22.27;63.58;99037.50;5026132;28;20103;-52
2023/08/09 04:26:10;;;;;;;2.28;1.17;;;;;;;22.40;63.30;99031.88;5010056;28;20909;-53
2023/08/09 04:28:37;;;;;;;6.70;1.58;;;;;;;22.50;63.02;99040.66;5009454;28;20432;-50
2023/08/09 04:31:05;;;;;;;2.30;1.33;;;;;;;22.58;62.83;99035.47;5024196;28;20057;-50
2023/08/09 04:33:31;;;;;;;5.50;2.03;;;;;;;22.57;62.62;99039.09;5045209;28;20095;-49
2023/08/09 04:35:57;;;;;;;4.07;1.50;;;;;;;22.52;62.46;99036.03;5026418;28;20037;-49
2023/08/09 04:38:23;;;;;;;4.25;1.60;;;;;;;22.54;62.52;99038.53;5026470;28;20075;-49
2023/08/09 04:40:49;;;;;;;3.92;1.70;;;;;;;22.40;62.38;99021.28;5026324;28;20521;-48
2023/08/09 04:43:15;;;;;;;5.35;1.40;;;;;;;22.59;62.22;99038.94;5023301;28;20033;-50
2023/08/09 04:45:41;;;;;;;4.55;1.38;;;;;;;22.66;61.83;99040.06;5027312;28;20136;-45
2023/08/09 04:48:15;;;;;;;1.52;1.15;;;;;;;22.72;61.60;99050.91;5024815;28;20543;-50
2023/08/09 04:50:41;;;;;;;2.83;1.42;;;;;;;22.75;61.41;99044.50;5023965;28;20591;-48
2023/08/09 04:53:07;;;;;;;2.90;1.30;;;;;;;22.76;61.39;99046.19;5025802;28;20060;-53
2023/08/09 04:55:33;;;;;;;2.05;1.20;;;;;;;22.80;61.12;99052.84;5026083;28;20042;-52
2023/08/09 04:57:59;;;;;;;4.63;1.35;;;;;;;22.83;60.99;99049.91;5027524;28;20524;-53
2023/08/09 05:00:25;;;;;;;3.92;1.60;;;;;;;22.89;61.02;99038.72;5022126;28;20050;-53
2023/08/09 05:02:51;;;;;;;2.67;1.42;;;;;;;23.00;60.85;99038.53;5020599;28;20046;-50
2023/08/09 05:05:17;;;;;;;4.75;1.50;;;;;;;23.15;60.52;99038.88;5027414;28;20099;-54
2023/08/09 05:07:43;;;;;;;3.28;1.42;;;;;;;23.18;60.24;99020.88;5023281;28;20529;-53
2023/08/09 05:10:10;;;;;;;4.47;1.50;;;;;;;23.42;59.77;99033.56;5023497;28;20512;-55
2023/08/09 05:12:36;;;;;;;3.75;1.52;;;;;;;23.46;59.55;99042.06;4999218;28;20040;-54
2023/08/09 05:15:03;;;;;;;1.98;1.48;;;;;;;23.48;59.45;99040.13;5024807;28;20458;-53
2023/08/09 05:17:32;;;;;;;2.97;1.30;;;;;;;23.51;59.39;99045.09;5022913;28;20083;-53
2023/08/09 05:19:58;;;;;;;2.08;1.40;;;;;;;23.35;59.49;99024.50;5026084;28;20115;-53
2023/08/09 05:22:24;;;;;;;2.30;1.30;;;;;;;23.48;59.32;99040.13;5008872;28;20467;-50
2023/08/09 05:24:49;;;;;;;4.78;1.30;;;;;;;23.50;59.38;99048.78;5023775;28;20041;-55
2023/08/09 05:27:15;;;;;;;2.53;1.55;;;;;;;23.54;59.29;99050.13;5023798;28;20096;-53
2023/08/09 05:29:41;;;;;;;3.55;1.70;;;;;;;23.61;59.15;99053.84;5024733;28;20580;-54
2023/08/09 05:32:07;;;;;;;2.30;1.42;;;;;;;23.64;59.37;99058.84;5022590;28;20045;-55
2023/08/09 05:34:33;;;;;;;4.75;1.30;;;;;;;23.52;59.36;99041.47;5025292;28;20483;-52
2023/08/09 05:36:59;;;;;;;7.30;2.30;;;;;;;23.65;59.51;99060.53;5032552;28;20136;-51
2023/08/09 05:39:26;;;;;;;5.45;1.80;;;;;;;23.61;59.39;99067.09;5027222;28;20095;-53
2023/08/09 05:41:52;;;;;;;5.13;1.80;;;;;;;23.68;59.56;99065.53;5025133;28;20051;-52
2023/08/09 05:44:18;;;;;;;2.97;1.45;;;;;;;23.75;59.32;99071.91;5009184;28;20046;-51
2023/08/09 05:46:44;;;;;;;2.80;1.50;;;;;;;23.78;59.38;99074.25;5028435;28;21482;-52
2023/08/09 05:49:09;;;;;;;4.47;1.80;;;;;;;23.90;59.45;99077.53;5027358;28;20136;-53
2023/08/09 05:51:35;;;;;;;4.72;1.90;;;;;;;24.14;58.88;99075.06;5028870;28;20060;-54
2023/08/09 05:54:01;;;;;;;3.05;1.70;;;;;;;24.23;58.55;99084.00;5027591;28;20513;-52
2023/08/09 05:56:27;;;;;;;5.68;1.60;;;;;;;24.31;58.67;99082.22;5031604;28;20095;-51
2023/08/09 05:58:53;;;;;;;9.70;2.08;;;;;;;24.42;58.41;99089.13;5032354;28;20037;-53
2023/08/09 06:01:20;;;;;;;5.82;2.05;;;;;;;24.59;57.81;99084.75;5030096;28;20501;-49
2023/08/09 06:03:47;;;;;;;6.13;1.90;;;;;;;24.66;57.67;99083.97;5033741;28;20087;-49
2023/08/09 06:06:13;;;;;;;4.82;1.90;;;;;;;24.68;57.41;99084.66;5028671;28;20079;-51
2023/08/09 06:08:39;;;;;;;3.60;1.83;;;;;;;24.77;57.23;99081.03;5029733;28;20061;-53
2023/08/09 06:11:05;;;;;;;4.53;1.67;;;;;;;24.85;57.20;99078.44;5032673;28;20052;-54
2023/08/09 06:13:31;;;;;;;4.53;1.90;;;;;;;24.93;57.02;99076.84;5030645;28;20045;-50
2023/08/09 06:15:58;;;;;;;6.22;2.40;;;;;;;25.13;56.48;99076.44;5024849;28;20056;-48
2023/08/09 06:18:24;;;;;;;3.70;1.95;;;;;;;25.20;56.24;99066.00;5024548;28;20048;-49
2023/08/09 06:20:50;;;;;;;4.85;2.00;;;;;;;25.39;55.77;99084.34;5022796;28;20038;-46
2023/08/09 06:23:16;;;;;;;5.90;1.80;;;;;;;25.44;55.29;99082.03;5024930;28;20033;-47
2023/08/09 06:25:42;;;;;;;4.43;1.90;;;;;;;25.37;55.31;99056.25;5028625;28;20053;-48
2023/08/09 06:28:08;;;;;;;5.40;1.67;;;;;;;25.61;55.06;99083.78;5021524;28;20505;-47
2023/08/09 06:30:34;;;;;;;4.40;1.80;;;;;;;25.71;54.69;99065.00;5027751;28;20041;-45
2023/08/09 06:33:00;;;;;;;5.53;1.95;;;;;;;26.05;54.16;99081.69;5021786;28;20581;-49
2023/08/09 06:35:26;;;;;;;2.80;1.98;;;;;;;26.33;53.57;99073.38;5024670;28;20133;-49
2023/08/09 06:37:53;;;;;;;2.13;1.77;;;;;;;26.43;53.28;99066.06;5034299;28;20084;-53
2023/08/09 06:40:18;;;;;;;4.28;1.95;;;;;;;26.59;52.87;99084.69;5026884;28;20044;-53
2023/08/09 06:42:46;;;;;;;4.75;1.55;;;;;;;26.48;52.63;99087.72;5028511;28;20457;-52
2023/08/09 06:45:16;;;;;;;11.15;2.22;;;;;;;26.49;52.90;99089.38;5016693;28;20044;-51
2023/08/09 06:47:41;;;;;;;6.88;2.00;;;;;;;26.50;52.77;99089.22;5027755;28;20132;-53
2023/08/09 06:50:08;;;;;;;5.00;1.90;;;;;;;26.55;52.80;99088.69;5024390;28;20056;-53
2023/08/09 06:52:38;;;;;;;6.60;2.03;;;;;;;26.63;52.65;99095.88;5029684;28;20033;-52
2023/08/09 06:55:05;;;;;;;5.75;2.03;;;;;;;26.53;52.42;99069.38;5022770;28;20068;-54
2023/08/09 06:57:31;;;;;;;5.57;2.00;;;;;;;26.49;52.67;99068.88;5027638;28;20037;-55
2023/08/09 06:59:57;;;;;;;4.28;1.80;;;;;;;26.67;52.41;99099.84;5027584;28;20083;-55
2023/08/09 07:02:23;;;;;;;4.00;2.00;;;;;;;26.71;52.21;99098.50;5029110;28;20041;-55
2023/08/09 07:04:53;;;;;;;4.53;1.70;;;;;;;26.90;52.21;99104.31;5020552;28;20547;-52
2023/08/09 07:07:20;;;;;;;2.95;1.98;;;;;;;27.01;51.92;99089.78;5022352;28;20597;-51
2023/08/09 07:09:46;;;;;;;3.20;1.70;;;;;;;27.24;51.22;99077.38;5026414;28;20037;-58
2023/08/09 07:12:12;;;;;;;3.55;1.95;;;;;;;27.81;50.28;99107.31;5028033;28;20044;-50
2023/08/09 07:14:38;;;;;;;3.78;2.40;;;;;;;27.87;49.72;99065.69;5023517;28;20042;-53
2023/08/09 07:17:03;;;;;;;3.35;1.90;;;;;;;28.27;49.41;99096.66;5020059;28;20040;-53
2023/08/09 07:19:29;;;;;;;2.75;1.70;;;;;;;28.31;49.20;99103.31;5022043;28;20048;-53
2023/08/09 07:21:56;;;;;;;4.88;2.10;;;;;;;28.67;48.37;99098.13;5023763;28;20538;-57
2023/08/09 07:24:21;;;;;;;6.07;2.17;;;;;;;29.31;47.59;99091.25;5027162;28;20091;-52
2023/08/09 07:26:47;;;;;;;6.90;2.10;;;;;;;30.94;44.72;99079.66;5027164;28;20520;-51
2023/08/09 07:29:13;;;;;;;6.30;2.25;;;;;;;32.70;41.77;99091.16;5028773;28;20127;-52
2023/08/09 07:31:40;;;;;;;6.20;1.85;;;;;;;33.69;40.16;99090.91;5023777;28;20052;-53
2023/08/09 07:34:06;;;;;;;4.70;2.00;;;;;;;33.87;39.52;99099.06;5021618;28;20497;-52
2023/08/09 07:36:32;;;;;;;4.47;2.28;;;;;;;33.33;39.59;99099.53;5028489;28;20128;-52
2023/08/09 07:38:58;;;;;;;6.07;2.30;;;;;;;33.12;39.59;99095.22;5027175;28;20041;-54
2023/08/09 07:41:25;;;;;;;3.60;1.92;;;;;;;33.16;39.45;99092.91;5021645;28;20548;-51
2023/08/09 07:43:51;;;;;;;2.90;1.70;;;;;;;32.75;39.52;99096.75;5010157;28;20064;-52
2023/08/09 07:46:17;;;;;;;6.05;1.70;;;;;;;32.15;40.43;99086.16;5028047;28;20041;-53
2023/08/09 07:48:43;;;;;;;6.25;2.45;;;;;;;31.85;40.99;99091.88;5021044;28;20567;-51
2023/08/09 07:51:12;;;;;;;6.40;2.30;;;;;;;31.35;41.73;99065.44;5024112;28;20141;-56
2023/08/09 07:53:38;;;;;;;3.95;2.00;;;;;;;31.26;42.36;99098.84;5026382;28;20614;-53
2023/08/09 07:56:05;;;;;;;4.72;2.22;;;;;;;31.03;42.82;99096.47;5010658;28;20033;-49
2023/08/09 07:58:30;;;;;;;4.43;2.28;;;;;;;30.64;43.29;99094.31;5028141;28;20600;-49
2023/08/09 08:00:56;;;;;;;4.70;2.17;;;;;;;30.38;43.85;99102.97;5025635;28;20072;-52
2023/08/09 08:03:22;;;;;;;4.43;1.85;;;;;;;30.13;44.10;99077.56;5023333;28;20519;-48
2023/08/09 08:05:48;;;;;;;3.97;2.17;;;;;;;29.87;44.62;99088.84;5026407;28;20538;-51
2023/08/09 08:08:17;;;;;;;5.78;2.00;;;;;;;29.31;44.86;99051.09;5026764;28;20045;-52
2023/08/09 08:10:43;;;;;;;4.72;2.00;;;;;;;29.38;45.31;99086.84;5027597;28;20095;-52
2023/08/09 08:13:09;;;;;;;3.33;2.10;;;;;;;29.19;45.35;99091.91;5024525;28;20448;-53
2023/08/09 08:15:36;;;;;;;3.65;1.65;;;;;;;28.72;46.29;99063.66;5026572;28;20114;-51
2023/08/09 08:18:04;;;;;;;5.20;2.00;;;;;;;28.66;46.91;99088.44;5023567;28;20136;-53
2023/08/09 08:20:30;;;;;;;3.70;1.88;;;;;;;28.43;47.40;99085.81;5026429;28;20037;-52
2023/08/09 08:22:56;;;;;;;5.13;2.13;;;;;;;28.22;47.84;99083.81;5025170;28;20045;-48
2023/08/09 08:25:23;;;;;;;6.53;2.05;;;;;;;28.04;48.22;99091.28;5027625;28;20033;-51
2023/08/09 08:27:49;;;;;;;3.53;2.13;;;;;;;27.83;49.07;99104.47;5027830;28;20047;-53
2023/08/09 08:30:21;;;;;;;5.65;2.20;;;;;;;27.70;49.42;99102.38;5026535;28;20433;-51
2023/08/09 08:32:47;;;;;;;3.45;2.63;;;;;;;27.59;49.70;99105.44;5025104;28;20045;-50
2023/08/09 08:35:18;;;;;;;4.85;1.77;;;;;;;27.33;49.48;99087.00;5027773;28;20049;-50
2023/08/09 08:37:44;;;;;;;4.68;1.90;;;;;;;27.40;49.42;99105.84;5024516;28;20042;-50
2023/08/09 08:40:21;;;;;;;4.95;1.65;;;;;;;27.42;49.38;99112.66;5026404;28;20042;-52
2023/08/09 08:42:48;;;;;;;4.28;2.45;;;;;;;27.51;49.22;99116.16;5022862;28;20114;-53
2023/08/09 08:45:15;;;;;;;3.67;1.90;;;;;;;27.60;49.27;99119.63;5020564;28;20041;-52
2023/08/09 08:47:44;;;;;;;3.78;1.70;;;;;;;28.08;48.43;99124.66;5024018;28;20038;-50
2023/08/09 08:50:11;;;;;;;3.63;1.70;;;;;;;29.02;46.45;99129.56;5024897;28;20041;-51
2023/08/09 08:52:39;;;;;;;5.35;1.77;;;;;;;29.03;46.13;99128.56;5021751;28;20038;-53
2023/08/09 08:55:10;;;;;;;3.90;1.70;;;;;;;28.72;46.84;99135.91;5025677;28;20041;-52
2023/08/09 08:57:40;;;;;;;4.68;2.03;;;;;;;28.65;47.02;99116.22;5025904;28;20069;-54
2023/08/09 09:00:15;;;;;;;4.95;1.70;;;;;;;28.82;46.79;99124.94;5026402;28;20084;-51
2023/08/09 09:02:46;;;;;;;4.55;1.92;;;;;;;28.78;46.90;99134.34;5009383;28;20187;-53
2023/08/09 09:05:13;;;;;;;4.63;1.65;;;;;;;28.50;46.88;99118.03;5025325;28;20049;-52
2023/08/09 09:07:42;;;;;;;3.70;1.70;;;;;;;28.42;47.33;99147.53;5027961;28;20072;-48
2023/08/09 09:10:12;;;;;;;2.03;1.80;;;;;;;28.25;47.59;99141.47;5021738;28;20483;-50
2023/08/09 09:12:39;;;;;;;6.35;2.30;;;;;;;28.69;47.12;99154.94;5026300;28;20049;-52
2023/08/09 09:15:06;;;;;;;12.07;2.30;;;;;;;29.65;45.87;99149.59;5028503;28;20496;-52
2023/08/09 09:17:44;;;;;;;5.13;2.15;;;;;;;31.43;42.92;99154.75;5026102;28;20038;-53
2023/08/09 09:20:23;;;;;;;9.85;2.45;;;;;;;32.49;41.21;99152.44;5013616;28;20053;-50
2023/08/09 09:22:53;;;;;;;6.05;2.33;;;;;;;34.01;38.62;99154.63;5022726;28;20044;-52
2023/08/09 09:25:22;;;;;;;4.32;2.00;;;;;;;33.37;38.48;99165.44;5031006;28;20048;-51
2023/08/09 09:27:52;;;;;;;4.07;1.90;;;;;;;32.59;39.09;99129.44;5024269;28;20053;-51
2023/08/09 09:30:21;;;;;;;6.05;2.33;;;;;;;32.36;40.26;99166.69;5034612;28;20052;-54
2023/08/09 09:32:58;;;;;;;6.18;2.10;;;;;;;31.93;40.80;99158.06;5029317;28;20509;-53
2023/08/09 09:35:27;;;;;;;4.05;2.05;;;;;;;31.84;40.81;99152.06;5033688;28;20034;-51
2023/08/09 09:37:54;;;;;;;3.15;1.90;;;;;;;31.97;40.87;99153.97;5050727;28;20397;-50
2023/08/09 09:40:33;;;;;;;6.27;2.13;;;;;;;32.19;40.23;99152.78;5027096;28;20052;-52
2023/08/09 09:43:01;;;;;;;3.80;2.03;;;;;;;33.59;38.26;99158.75;5023343;28;20041;-51
2023/08/09 09:45:29;;;;;;;2.13;1.75;;;;;;;34.34;36.98;99159.81;5031965;28;20033;-50
2023/08/09 09:47:57;;;;;;;2.35;1.83;;;;;;;34.65;36.17;99158.97;5022871;28;20129;-51
2023/08/09 09:50:25;;;;;;;2.22;1.70;;;;;;;35.59;34.95;99155.19;5024878;28;20037;-49
2023/08/09 09:52:52;;;;;;;3.72;2.00;;;;;;;36.81;33.17;99149.25;5027509;28;20060;-51
2023/08/09 09:55:25;;;;;;;6.00;2.08;;;;;;;37.51;31.64;99127.53;5031476;28;20045;-53
2023/08/09 09:57:55;;;;;;;2.50;1.73;;;;;;;37.14;31.80;99159.56;5028495;28;20041;-53
2023/08/09 10:00:22;;;;;;;4.03;1.77;;;;;;;36.21;32.87;99161.25;5032184;28;20735;-53
2023/08/09 10:02:50;;;;;;;3.33;1.75;;;;;;;35.13;34.37;99161.88;5032247;28;20072;-49
2023/08/09 10:05:19;;;;;;;4.13;2.08;;;;;;;34.25;35.31;99163.00;5012182;28;20046;-52
2023/08/09 10:07:47;;;;;;;2.92;1.80;;;;;;;33.40;36.51;99162.31;5025337;28;20053;-53
2023/08/09 10:10:14;;;;;;;1.88;1.67;;;;;;;32.51;37.90;99163.78;5029379;28;20050;-51
2023/08/09 10:12:51;;;;;;;3.22;1.98;;;;;;;31.78;39.26;99177.06;5031167;28;20542;-53
2023/08/09 10:15:23;;;;;;;2.67;1.70;;;;;;;31.39;40.11;99176.84;5026995;28;20045;-52
2023/08/09 10:17:53;;;;;;;6.03;2.00;;;;;;;30.93;40.70;99169.28;5056581;28;20045;-47
2023/08/09 10:20:19;;;;;;;3.88;2.10;;;;;;;30.67;41.17;99169.91;5033591;28;20068;-49
2023/08/09 10:22:47;;;;;;;7.05;2.20;;;;;;;30.46;41.82;99152.97;5015890;28;20045;-50
2023/08/09 10:25:13;;;;;;;3.27;1.67;;;;;;;30.36;41.90;99153.28;5040404;28;20064;-49
2023/08/09 10:27:51;;;;;;;5.22;1.80;;;;;;;30.13;41.99;99125.84;5010079;28;20299;-49
2023/08/09 10:30:19;;;;;;;5.93;1.80;;;;;;;30.54;41.98;99144.81;4998574;28;20560;-49
2023/08/09 10:32:56;;;;;;;6.43;2.10;;;;;;;33.21;38.54;99144.34;5031535;28;20132;-52
2023/08/09 10:35:44;;;;;;;2.78;1.80;;;;;;;35.23;35.28;99143.28;5063547;28;20068;-51
2023/08/09 10:38:15;;;;;;;3.35;1.70;;;;;;;34.34;36.03;99118.50;5024747;28;20075;-48
2023/08/09 10:40:42;;;;;;;4.90;1.90;;;;;;;33.49;37.40;99157.53;5031188;28;20061;-50
2023/08/09 10:43:13;;;;;;;2.20;1.85;;;;;;;32.75;38.52;99157.84;5025093;28;20091;-50
2023/08/09 10:45:39;;;;;;;3.05;1.88;;;;;;;32.50;38.78;99157.63;5030874;28;20048;-54
2023/08/09 10:48:25;;;;;;;3.45;1.80;;;;;;;32.41;38.63;99158.00;5030501;28;20046;-49
2023/08/09 10:51:21;;;;;;;6.20;3.90;;;;;;;32.42;39.15;99160.50;5014433;28;20076;-48
2023/08/09 10:54:05;;;;;;;2.53;1.83;;;;;;;32.56;38.66;99172.91;5016656;28;20089;-52
2023/08/09 10:56:39;;;;;;;2.38;1.67;;;;;;;32.01;39.06;99174.03;5027918;28;20043;-51
2023/08/09 10:59:13;;;;;;;2.45;2.10;;;;;;;31.60;39.66;99182.16;5013205;28;20040;-48
2023/08/09 11:01:40;;;;;;;6.90;2.58;;;;;;;31.10;40.73;99154.56;5032386;28;20582;-47
2023/08/09 11:04:08;;;;;;;2.20;2.00;;;;;;;31.64;39.64;99179.91;5029178;28;20065;-50
2023/08/09 11:06:37;;;;;;;2.70;1.70;;;;;;;32.93;37.85;99171.50;5027167;28;20437;-52
2023/08/09 11:09:13;;;;;;;2.15;1.88;;;;;;;33.46;36.91;99164.16;5032435;28;20079;-50
2023/08/09 11:11:41;;;;;;;4.63;1.98;;;;;;;34.72;34.61;99148.97;5035809;28;20045;-49
2023/08/09 11:14:09;;;;;;;4.22;2.00;;;;;;;33.91;35.24;99139.94;5025335;28;20143;-47
2023/08/09 11:16:35;;;;;;;3.78;1.65;;;;;;;33.50;35.57;99143.00;5026785;28;20041;-50
2023/08/09 11:19:03;;;;;;;3.05;1.80;;;;;;;32.72;36.27;99148.31;5030619;28;20528;-48
2023/08/09 11:21:46;;;;;;;2.67;1.50;;;;;;;32.45;37.21;99156.56;5010082;28;20045;-48
2023/08/09 11:24:14;;;;;;;5.10;1.80;;;;;;;32.14;37.71;99157.13;5057352;28;20044;-49
2023/08/09 11:26:47;;;;;;;3.47;1.85;;;;;;;32.12;37.43;99154.66;5034426;28;20461;-50
2023/08/09 11:29:13;;;;;;;2.22;1.92;;;;;;;33.89;35.43;99148.25;5027162;28;20099;-50
2023/08/09 11:31:42;;;;;;;5.38;1.70;;;;;;;35.49;33.07;99152.16;5029639;28;20818;-50
2023/08/09 11:34:11;;;;;;;3.05;2.15;;;;;;;34.71;33.27;99147.31;5023951;28;20051;-51
2023/08/09 11:36:38;;;;;;;4.30;1.60;;;;;;;34.14;33.95;99148.31;5026485;28;20033;-49